sensor_id;sensor_type;location;lat;lon;timestamp;pressure;altitude;pressure_sealevel;temperature;humidity
47811;BME280;33575;52.600;7.318;2023-05-19T00:01:41;102625.24;;;9.69;81.83
47811;BME280;33575;52.600;7.318;2023-05-19T00:04:11;102624.18;;;9.64;80.76
47811;BME280;33575;52.600;7.318;2023-05-19T00:06:42;102623.32;;;9.61;80.44
47811;BME280;33575;52.600;7.318;2023-05-19T00:09:12;102621.98;;;9.60;80.60
47811;BME280;33575;52.600;7.318;2023-05-19T00:11:43;102621.04;;;9.62;80.30
47811;BME280;33575;52.600;7.318;2023-05-19T00:14:13;102616.74;;;9.62;80.56
47811;BME280;33575;52.600;7.318;2023-05-19T00:16:44;102615.52;;;9.67;79.71
47811;BME280;33575;52.600;7.318;2023-05-19T00:19:14;102612.44;;;9.69;79.76
47811;BME280;33575;52.600;7.318;2023-05-19T00:21:45;102616.89;;;9.71;80.55
47811;BME280;33575;52.600;7.318;2023-05-19T00:24:15;102612.67;;;9.74;80.47
47811;BME280;33575;52.600;7.318;2023-05-19T00:26:45;102612.31;;;9.77;79.81
47811;BME280;33575;52.600;7.318;2023-05-19T00:29:16;102609.92;;;9.80;79.12
47811;BME280;33575;52.600;7.318;2023-05-19T00:31:47;102611.25;;;9.82;79.23
47811;BME280;33575;52.600;7.318;2023-05-19T00:34:17;102608.92;;;9.81;78.90
47811;BME280;33575;52.600;7.318;2023-05-19T00:36:48;102609.23;;;9.82;79.19
47811;BME280;33575;52.600;7.318;2023-05-19T00:39:18;102606.92;;;9.83;79.20
47811;BME280;33575;52.600;7.318;2023-05-19T00:41:49;102609.18;;;9.83;79.60
47811;BME280;33575;52.600;7.318;2023-05-19T00:44:19;102608.35;;;9.85;80.25
47811;BME280;33575;52.600;7.318;2023-05-19T00:46:50;102606.11;;;9.86;79.01
47811;BME280;33575;52.600;7.318;2023-05-19T00:49:20;102606.57;;;9.85;79.23
47811;BME280;33575;52.600;7.318;2023-05-19T00:51:51;102604.13;;;9.85;78.79
47811;BME280;33575;52.600;7.318;2023-05-19T00:54:21;102603.62;;;9.84;78.58
47811;BME280;33575;52.600;7.318;2023-05-19T00:56:52;102604.35;;;9.80;78.66
47811;BME280;33575;52.600;7.318;2023-05-19T00:59:23;102600.56;;;9.78;77.95
47811;BME280;33575;52.600;7.318;2023-05-19T01:01:53;102596.18;;;9.74;77.99
47811;BME280;33575;52.600;7.318;2023-05-19T01:04:24;102595.14;;;9.69;78.19
47811;BME280;33575;52.600;7.318;2023-05-19T01:06:55;102596.28;;;9.66;78.62
47811;BME280;33575;52.600;7.318;2023-05-19T01:09:25;102589.91;;;9.61;78.64
47811;BME280;33575;52.600;7.318;2023-05-19T01:11:56;102591.40;;;9.55;78.50
47811;BME280;33575;52.600;7.318;2023-05-19T01:14:27;102591.05;;;9.49;80.17
47811;BME280;33575;52.600;7.318;2023-05-19T01:17:01;102589.21;;;9.42;83.25
47811;BME280;33575;52.600;7.318;2023-05-19T01:19:40;102590.47;;;9.38;84.44
47811;BME280;33575;52.600;7.318;2023-05-19T01:22:10;102587.12;;;9.36;82.43
47811;BME280;33575;52.600;7.318;2023-05-19T01:24:46;102587.69;;;9.35;81.26
47811;BME280;33575;52.600;7.318;2023-05-19T01:27:13;102587.35;;;9.30;79.99
47811;BME280;33575;52.600;7.318;2023-05-19T01:29:40;102582.70;;;9.20;80.06
47811;BME280;33575;52.600;7.318;2023-05-19T01:32:03;102584.49;;;9.15;79.49
47811;BME280;33575;52.600;7.318;2023-05-19T01:34:32;102584.02;;;9.09;79.40
47811;BME280;33575;52.600;7.318;2023-05-19T01:37:03;102584.50;;;9.01;78.84
47811;BME280;33575;52.600;7.318;2023-05-19T01:39:33;102582.74;;;8.93;79.02
47811;BME280;33575;52.600;7.318;2023-05-19T01:42:03;102580.10;;;8.86;79.64
47811;BME280;33575;52.600;7.318;2023-05-19T01:44:33;102578.00;;;8.85;79.93
47811;BME280;33575;52.600;7.318;2023-05-19T01:47:04;102577.53;;;8.87;79.87
47811;BME280;33575;52.600;7.318;2023-05-19T01:49:35;102575.57;;;8.88;80.44
47811;BME280;33575;52.600;7.318;2023-05-19T01:52:05;102573.01;;;8.86;80.31
47811;BME280;33575;52.600;7.318;2023-05-19T01:54:36;102576.26;;;8.81;81.12
47811;BME280;33575;52.600;7.318;2023-05-19T01:57:16;102576.80;;;8.79;81.85
47811;BME280;33575;52.600;7.318;2023-05-19T01:59:45;102581.41;;;8.72;81.82
47811;BME280;33575;52.600;7.318;2023-05-19T02:02:16;102582.64;;;8.68;82.23
47811;BME280;33575;52.600;7.318;2023-05-19T02:04:44;102581.37;;;8.63;82.78
47811;BME280;33575;52.600;7.318;2023-05-19T02:07:12;102579.81;;;8.63;83.21
47811;BME280;33575;52.600;7.318;2023-05-19T02:09:43;102581.26;;;8.62;82.52
47811;BME280;33575;52.600;7.318;2023-05-19T02:12:14;102584.13;;;8.61;82.72
47811;BME280;33575;52.600;7.318;2023-05-19T02:14:46;102585.01;;;8.60;82.59
47811;BME280;33575;52.600;7.318;2023-05-19T02:17:12;102588.39;;;8.61;82.17
47811;BME280;33575;52.600;7.318;2023-05-19T02:19:42;102586.89;;;8.61;82.02
47811;BME280;33575;52.600;7.318;2023-05-19T02:22:11;102587.96;;;8.58;82.44
47811;BME280;33575;52.600;7.318;2023-05-19T02:24:42;102588.03;;;8.56;82.20
47811;BME280;33575;52.600;7.318;2023-05-19T02:27:12;102590.18;;;8.48;82.50
47811;BME280;33575;52.600;7.318;2023-05-19T02:29:42;102594.96;;;8.47;82.56
47811;BME280;33575;52.600;7.318;2023-05-19T02:32:13;102589.99;;;8.47;82.24
47811;BME280;33575;52.600;7.318;2023-05-19T02:34:43;102584.04;;;8.44;82.22
47811;BME280;33575;52.600;7.318;2023-05-19T02:37:13;102583.37;;;8.44;85.20
47811;BME280;33575;52.600;7.318;2023-05-19T02:39:44;102580.55;;;8.58;89.10
47811;BME280;33575;52.600;7.318;2023-05-19T02:42:14;102576.69;;;8.62;86.60
47811;BME280;33575;52.600;7.318;2023-05-19T02:44:45;102572.04;;;8.66;84.95
47811;BME280;33575;52.600;7.318;2023-05-19T02:47:15;102570.53;;;8.70;84.34
47811;BME280;33575;52.600;7.318;2023-05-19T02:49:46;102567.62;;;8.74;84.11
47811;BME280;33575;52.600;7.318;2023-05-19T02:52:16;102561.60;;;8.77;83.68
47811;BME280;33575;52.600;7.318;2023-05-19T02:54:47;102555.45;;;8.77;82.91
47811;BME280;33575;52.600;7.318;2023-05-19T02:57:17;102553.77;;;8.75;82.58
47811;BME280;33575;52.600;7.318;2023-05-19T02:59:48;102554.28;;;8.74;82.72
47811;BME280;33575;52.600;7.318;2023-05-19T03:02:18;102554.75;;;8.74;82.86
47811;BME280;33575;52.600;7.318;2023-05-19T03:04:49;102550.21;;;8.73;83.08
47811;BME280;33575;52.600;7.318;2023-05-19T03:07:20;102551.76;;;8.74;83.47
47811;BME280;33575;52.600;7.318;2023-05-19T03:09:51;102555.22;;;8.76;84.22
47811;BME280;33575;52.600;7.318;2023-05-19T03:12:21;102555.51;;;8.79;83.45
47811;BME280;33575;52.600;7.318;2023-05-19T03:14:51;102559.64;;;8.81;83.93
47811;BME280;33575;52.600;7.318;2023-05-19T03:17:21;102561.20;;;8.83;84.15
47811;BME280;33575;52.600;7.318;2023-05-19T03:19:52;102560.27;;;8.87;84.41
47811;BME280;33575;52.600;7.318;2023-05-19T03:22:22;102560.09;;;8.88;83.98
47811;BME280;33575;52.600;7.318;2023-05-19T03:24:53;102557.76;;;8.93;83.85
47811;BME280;33575;52.600;7.318;2023-05-19T03:27:23;102558.21;;;8.93;84.67
47811;BME280;33575;52.600;7.318;2023-05-19T03:29:54;102559.60;;;8.95;84.31
47811;BME280;33575;52.600;7.318;2023-05-19T03:32:24;102559.03;;;8.98;83.77
47811;BME280;33575;52.600;7.318;2023-05-19T03:34:54;102558.39;;;8.99;84.18
47811;BME280;33575;52.600;7.318;2023-05-19T03:37:24;102558.90;;;8.96;83.94
47811;BME280;33575;52.600;7.318;2023-05-19T03:39:54;102558.30;;;8.98;83.30
47811;BME280;33575;52.600;7.318;2023-05-19T03:42:25;102558.16;;;8.99;83.61
47811;BME280;33575;52.600;7.318;2023-05-19T03:44:55;102557.39;;;9.00;83.49
47811;BME280;33575;52.600;7.318;2023-05-19T03:47:26;102558.30;;;9.02;83.47
47811;BME280;33575;52.600;7.318;2023-05-19T03:49:56;102557.33;;;9.03;83.51
47811;BME280;33575;52.600;7.318;2023-05-19T03:52:27;102557.67;;;9.04;83.26
47811;BME280;33575;52.600;7.318;2023-05-19T03:54:58;102553.76;;;9.02;83.90
47811;BME280;33575;52.600;7.318;2023-05-19T03:57:28;102557.45;;;8.98;83.96
47811;BME280;33575;52.600;7.318;2023-05-19T03:59:58;102558.04;;;8.94;84.42
47811;BME280;33575;52.600;7.318;2023-05-19T04:02:29;102559.56;;;8.93;85.10
47811;BME280;33575;52.600;7.318;2023-05-19T04:04:59;102556.28;;;8.94;84.22
47811;BME280;33575;52.600;7.318;2023-05-19T04:07:29;102556.21;;;8.96;84.42
47811;BME280;33575;52.600;7.318;2023-05-19T04:10:01;102561.02;;;8.99;83.97
47811;BME280;33575;52.600;7.318;2023-05-19T04:12:30;102562.10;;;9.00;83.92
47811;BME280;33575;52.600;7.318;2023-05-19T04:15:01;102560.61;;;8.97;84.42
47811;BME280;33575;52.600;7.318;2023-05-19T04:17:31;102562.56;;;8.98;84.24
47811;BME280;33575;52.600;7.318;2023-05-19T04:20:01;102564.40;;;9.00;84.55
47811;BME280;33575;52.600;7.318;2023-05-19T04:22:32;102571.40;;;8.98;84.76
47811;BME280;33575;52.600;7.318;2023-05-19T04:25:03;102575.07;;;8.98;85.27
47811;BME280;33575;52.600;7.318;2023-05-19T04:27:33;102573.42;;;8.96;85.20
47811;BME280;33575;52.600;7.318;2023-05-19T04:30:04;102577.13;;;8.95;85.62
47811;BME280;33575;52.600;7.318;2023-05-19T04:32:34;102580.25;;;8.85;87.35
47811;BME280;33575;52.600;7.318;2023-05-19T04:35:05;102587.59;;;8.71;88.04
47811;BME280;33575;52.600;7.318;2023-05-19T04:37:35;102581.08;;;8.60;88.74
47811;BME280;33575;52.600;7.318;2023-05-19T04:40:07;102580.61;;;8.62;87.98
47811;BME280;33575;52.600;7.318;2023-05-19T04:42:36;102575.85;;;8.61;89.07
47811;BME280;33575;52.600;7.318;2023-05-19T04:45:07;102573.58;;;8.58;89.83
47811;BME280;33575;52.600;7.318;2023-05-19T04:47:37;102575.73;;;8.62;88.88
47811;BME280;33575;52.600;7.318;2023-05-19T04:50:07;102579.40;;;8.67;88.44
47811;BME280;33575;52.600;7.318;2023-05-19T04:52:37;102584.47;;;8.65;88.72
47811;BME280;33575;52.600;7.318;2023-05-19T04:55:08;102584.73;;;8.61;88.93
47811;BME280;33575;52.600;7.318;2023-05-19T04:57:38;102585.44;;;8.57;90.18
47811;BME280;33575;52.600;7.318;2023-05-19T05:00:09;102583.57;;;8.56;90.82
47811;BME280;33575;52.600;7.318;2023-05-19T05:02:39;102582.20;;;8.64;89.25
47811;BME280;33575;52.600;7.318;2023-05-19T05:05:09;102583.64;;;8.76;88.77
47811;BME280;33575;52.600;7.318;2023-05-19T05:07:40;102585.88;;;8.84;89.04
47811;BME280;33575;52.600;7.318;2023-05-19T05:10:10;102589.31;;;8.91;89.09
47811;BME280;33575;52.600;7.318;2023-05-19T05:12:41;102589.00;;;9.00;88.82
47811;BME280;33575;52.600;7.318;2023-05-19T05:15:12;102590.66;;;9.05;89.08
47811;BME280;33575;52.600;7.318;2023-05-19T05:17:42;102591.37;;;9.04;89.62
47811;BME280;33575;52.600;7.318;2023-05-19T05:20:12;102589.48;;;9.11;89.03
47811;BME280;33575;52.600;7.318;2023-05-19T05:22:42;102586.07;;;9.19;88.64
47811;BME280;33575;52.600;7.318;2023-05-19T05:25:13;102588.89;;;9.23;89.82
47811;BME280;33575;52.600;7.318;2023-05-19T05:27:42;102587.16;;;9.24;89.80
47811;BME280;33575;52.600;7.318;2023-05-19T05:30:13;102585.18;;;9.28;89.29
47811;BME280;33575;52.600;7.318;2023-05-19T05:32:43;102584.91;;;9.38;88.62
47811;BME280;33575;52.600;7.318;2023-05-19T05:35:14;102582.15;;;9.46;88.66
47811;BME280;33575;52.600;7.318;2023-05-19T05:37:44;102581.46;;;9.53;88.29
47811;BME280;33575;52.600;7.318;2023-05-19T05:40:15;102579.30;;;9.55;88.75
47811;BME280;33575;52.600;7.318;2023-05-19T05:42:45;102576.22;;;9.64;88.25
47811;BME280;33575;52.600;7.318;2023-05-19T05:45:15;102578.82;;;9.76;87.59
47811;BME280;33575;52.600;7.318;2023-05-19T05:47:46;102578.23;;;9.80;88.19
47811;BME280;33575;52.600;7.318;2023-05-19T05:50:17;102581.19;;;9.85;87.83
47811;BME280;33575;52.600;7.318;2023-05-19T05:52:47;102582.54;;;9.90;87.53
47811;BME280;33575;52.600;7.318;2023-05-19T05:55:18;102582.83;;;9.95;87.63
47811;BME280;33575;52.600;7.318;2023-05-19T05:57:48;102583.33;;;10.00;87.39
47811;BME280;33575;52.600;7.318;2023-05-19T06:00:19;102578.46;;;9.99;87.25
47811;BME280;33575;52.600;7.318;2023-05-19T06:02:50;102581.31;;;10.12;86.73
47811;BME280;33575;52.600;7.318;2023-05-19T06:05:20;102580.11;;;10.22;86.43
47811;BME280;33575;52.600;7.318;2023-05-19T06:07:50;102580.42;;;10.29;86.56
47811;BME280;33575;52.600;7.318;2023-05-19T06:10:20;102577.82;;;10.43;86.09
47811;BME280;33575;52.600;7.318;2023-05-19T06:12:51;102577.78;;;10.52;86.21
47811;BME280;33575;52.600;7.318;2023-05-19T06:15:21;102579.73;;;10.54;86.01
47811;BME280;33575;52.600;7.318;2023-05-19T06:17:51;102582.36;;;10.58;85.24
47811;BME280;33575;52.600;7.318;2023-05-19T06:20:22;102588.42;;;10.65;85.36
47811;BME280;33575;52.600;7.318;2023-05-19T06:22:52;102588.12;;;10.71;84.78
47811;BME280;33575;52.600;7.318;2023-05-19T06:25:22;102587.18;;;10.81;84.60
47811;BME280;33575;52.600;7.318;2023-05-19T06:27:52;102589.13;;;10.87;84.89
47811;BME280;33575;52.600;7.318;2023-05-19T06:30:23;102587.28;;;10.94;84.72
47811;BME280;33575;52.600;7.318;2023-05-19T06:32:53;102586.73;;;10.98;84.73
47811;BME280;33575;52.600;7.318;2023-05-19T06:35:23;102587.53;;;11.07;84.73
47811;BME280;33575;52.600;7.318;2023-05-19T06:37:54;102590.72;;;11.12;83.31
47811;BME280;33575;52.600;7.318;2023-05-19T06:40:25;102596.55;;;11.26;83.42
47811;BME280;33575;52.600;7.318;2023-05-19T06:42:56;102591.67;;;11.36;83.69
47811;BME280;33575;52.600;7.318;2023-05-19T06:45:26;102588.74;;;11.46;83.08
47811;BME280;33575;52.600;7.318;2023-05-19T06:47:57;102588.00;;;11.33;82.05
47811;BME280;33575;52.600;7.318;2023-05-19T06:50:27;102590.49;;;11.50;82.11
47811;BME280;33575;52.600;7.318;2023-05-19T06:52:58;102588.95;;;11.66;82.16
47811;BME280;33575;52.600;7.318;2023-05-19T06:55:28;102591.19;;;11.75;81.35
47811;BME280;33575;52.600;7.318;2023-05-19T06:57:59;102590.70;;;11.77;80.67
47811;BME280;33575;52.600;7.318;2023-05-19T07:00:29;102587.99;;;11.82;80.23
47811;BME280;33575;52.600;7.318;2023-05-19T07:03:00;102586.42;;;11.86;80.53
47811;BME280;33575;52.600;7.318;2023-05-19T07:05:30;102584.03;;;11.89;79.87
47811;BME280;33575;52.600;7.318;2023-05-19T07:08:01;102586.67;;;11.97;80.06
47811;BME280;33575;52.600;7.318;2023-05-19T07:10:32;102581.85;;;12.04;79.27
47811;BME280;33575;52.600;7.318;2023-05-19T07:13:02;102585.04;;;12.08;78.77
47811;BME280;33575;52.600;7.318;2023-05-19T07:15:32;102585.50;;;12.13;78.61
47811;BME280;33575;52.600;7.318;2023-05-19T07:18:03;102583.21;;;12.24;78.27
47811;BME280;33575;52.600;7.318;2023-05-19T07:20:33;102579.45;;;12.33;78.53
47811;BME280;33575;52.600;7.318;2023-05-19T07:23:04;102579.98;;;12.46;78.33
47811;BME280;33575;52.600;7.318;2023-05-19T07:25:34;102578.60;;;12.60;77.92
47811;BME280;33575;52.600;7.318;2023-05-19T07:28:05;102578.71;;;12.62;77.47
47811;BME280;33575;52.600;7.318;2023-05-19T07:30:35;102576.07;;;12.73;77.15
47811;BME280;33575;52.600;7.318;2023-05-19T07:33:05;102579.14;;;12.84;76.86
47811;BME280;33575;52.600;7.318;2023-05-19T07:35:36;102579.13;;;12.86;76.53
47811;BME280;33575;52.600;7.318;2023-05-19T07:38:06;102579.04;;;12.92;76.32
47811;BME280;33575;52.600;7.318;2023-05-19T07:40:37;102575.77;;;12.95;77.18
47811;BME280;33575;52.600;7.318;2023-05-19T07:43:07;102574.63;;;13.13;76.74
47811;BME280;33575;52.600;7.318;2023-05-19T07:45:37;102571.39;;;13.20;75.30
47811;BME280;33575;52.600;7.318;2023-05-19T07:48:08;102572.38;;;13.24;73.71
47811;BME280;33575;52.600;7.318;2023-05-19T07:50:38;102571.96;;;13.24;73.75
47811;BME280;33575;52.600;7.318;2023-05-19T07:53:09;102572.47;;;13.42;73.14
47811;BME280;33575;52.600;7.318;2023-05-19T07:55:39;102573.17;;;13.57;74.17
47811;BME280;33575;52.600;7.318;2023-05-19T07:58:09;102571.53;;;13.66;72.95
47811;BME280;33575;52.600;7.318;2023-05-19T08:00:40;102570.86;;;13.65;72.21
47811;BME280;33575;52.600;7.318;2023-05-19T08:03:11;102568.95;;;13.83;71.89
47811;BME280;33575;52.600;7.318;2023-05-19T08:05:40;102565.58;;;13.92;71.44
47811;BME280;33575;52.600;7.318;2023-05-19T08:08:11;102561.62;;;13.99;71.29
47811;BME280;33575;52.600;7.318;2023-05-19T08:10:41;102562.71;;;14.20;71.97
47811;BME280;33575;52.600;7.318;2023-05-19T08:13:12;102559.40;;;14.32;70.52
47811;BME280;33575;52.600;7.318;2023-05-19T08:15:42;102556.09;;;14.37;68.76
47811;BME280;33575;52.600;7.318;2023-05-19T08:18:13;102554.00;;;14.39;68.92
47811;BME280;33575;52.600;7.318;2023-05-19T08:20:43;102552.70;;;14.58;70.07
47811;BME280;33575;52.600;7.318;2023-05-19T08:23:13;102553.06;;;14.53;68.11
47811;BME280;33575;52.600;7.318;2023-05-19T08:25:44;102552.26;;;14.60;66.14
47811;BME280;33575;52.600;7.318;2023-05-19T08:28:14;102549.17;;;14.57;65.01
47811;BME280;33575;52.600;7.318;2023-05-19T08:30:45;102548.72;;;14.76;66.00
47811;BME280;33575;52.600;7.318;2023-05-19T08:33:15;102545.69;;;14.94;67.87
47811;BME280;33575;52.600;7.318;2023-05-19T08:35:46;102538.98;;;15.04;64.73
47811;BME280;33575;52.600;7.318;2023-05-19T08:38:16;102537.97;;;15.13;65.16
47811;BME280;33575;52.600;7.318;2023-05-19T08:40:46;102533.50;;;15.15;63.81
47811;BME280;33575;52.600;7.318;2023-05-19T08:43:17;102523.14;;;15.35;65.88
47811;BME280;33575;52.600;7.318;2023-05-19T08:45:47;102520.04;;;15.51;66.31
47811;BME280;33575;52.600;7.318;2023-05-19T08:48:18;102518.34;;;15.64;66.08
47811;BME280;33575;52.600;7.318;2023-05-19T08:50:56;102519.41;;;15.70;67.22
47811;BME280;33575;52.600;7.318;2023-05-19T08:53:26;102511.42;;;15.80;65.34
47811;BME280;33575;52.600;7.318;2023-05-19T08:55:54;102511.77;;;15.89;64.94
47811;BME280;33575;52.600;7.318;2023-05-19T08:58:20;102511.33;;;15.97;65.14
47811;BME280;33575;52.600;7.318;2023-05-19T09:00:50;102508.66;;;16.04;63.96
47811;BME280;33575;52.600;7.318;2023-05-19T09:03:25;102504.47;;;16.05;62.13
47811;BME280;33575;52.600;7.318;2023-05-19T09:05:50;102505.68;;;16.19;64.06
47811;BME280;33575;52.600;7.318;2023-05-19T09:08:20;102503.71;;;16.28;63.36
47811;BME280;33575;52.600;7.318;2023-05-19T09:10:51;102502.38;;;16.38;63.89
47811;BME280;33575;52.600;7.318;2023-05-19T09:13:21;102504.73;;;16.52;63.93
47811;BME280;33575;52.600;7.318;2023-05-19T09:15:52;102501.80;;;16.66;63.36
47811;BME280;33575;52.600;7.318;2023-05-19T09:18:23;102497.21;;;16.76;63.58
47811;BME280;33575;52.600;7.318;2023-05-19T09:20:56;102498.24;;;16.73;60.17
47811;BME280;33575;52.600;7.318;2023-05-19T09:23:22;102498.31;;;16.92;61.66
47811;BME280;33575;52.600;7.318;2023-05-19T09:25:53;102495.09;;;17.06;61.59
47811;BME280;33575;52.600;7.318;2023-05-19T09:28:24;102490.48;;;17.15;62.21
47811;BME280;33575;52.600;7.318;2023-05-19T09:30:59;102488.40;;;17.20;60.51
47811;BME280;33575;52.600;7.318;2023-05-19T09:33:24;102483.25;;;17.34;60.85
47811;BME280;33575;52.600;7.318;2023-05-19T09:35:54;102479.12;;;17.44;58.34
47811;BME280;33575;52.600;7.318;2023-05-19T09:38:24;102471.73;;;17.58;60.14
47811;BME280;33575;52.600;7.318;2023-05-19T09:40:55;102473.09;;;17.62;57.98
47811;BME280;33575;52.600;7.318;2023-05-19T09:43:26;102472.75;;;17.82;61.18
47811;BME280;33575;52.600;7.318;2023-05-19T09:45:58;102472.74;;;18.02;61.93
47811;BME280;33575;52.600;7.318;2023-05-19T09:48:25;102470.58;;;18.16;60.27
47811;BME280;33575;52.600;7.318;2023-05-19T09:50:56;102475.29;;;18.17;59.92
47811;BME280;33575;52.600;7.318;2023-05-19T09:53:27;102472.21;;;18.29;58.83
47811;BME280;33575;52.600;7.318;2023-05-19T09:55:57;102475.16;;;18.16;55.95
47811;BME280;33575;52.600;7.318;2023-05-19T09:58:30;102477.29;;;18.18;57.48
47811;BME280;33575;52.600;7.318;2023-05-19T10:00:57;102475.84;;;18.28;59.18
47811;BME280;33575;52.600;7.318;2023-05-19T10:03:31;102470.37;;;18.38;57.87
47811;BME280;33575;52.600;7.318;2023-05-19T10:06:00;102466.41;;;18.32;54.86
47811;BME280;33575;52.600;7.318;2023-05-19T10:08:28;102464.55;;;18.32;55.51
47811;BME280;33575;52.600;7.318;2023-05-19T10:10:59;102461.85;;;18.38;58.93
47811;BME280;33575;52.600;7.318;2023-05-19T10:13:29;102452.88;;;18.53;59.36
47811;BME280;33575;52.600;7.318;2023-05-19T10:16:01;102456.42;;;18.66;59.75
47811;BME280;33575;52.600;7.318;2023-05-19T10:18:29;102458.78;;;18.87;59.14
47811;BME280;33575;52.600;7.318;2023-05-19T10:21:01;102449.67;;;19.03;56.36
47811;BME280;33575;52.600;7.318;2023-05-19T10:23:30;102450.83;;;19.19;57.49
47811;BME280;33575;52.600;7.318;2023-05-19T10:26:02;102441.83;;;19.37;56.23
47811;BME280;33575;52.600;7.318;2023-05-19T10:28:35;102436.46;;;19.56;57.02
47811;BME280;33575;52.600;7.318;2023-05-19T10:31:05;102430.43;;;19.71;56.38
47811;BME280;33575;52.600;7.318;2023-05-19T10:33:37;102426.17;;;19.86;57.36
47811;BME280;33575;52.600;7.318;2023-05-19T10:36:14;102429.47;;;19.93;56.59
47811;BME280;33575;52.600;7.318;2023-05-19T10:38:36;102424.33;;;20.03;55.25
47811;BME280;33575;52.600;7.318;2023-05-19T10:41:06;102425.65;;;20.18;55.31
47811;BME280;33575;52.600;7.318;2023-05-19T10:43:41;102424.92;;;20.31;53.61
47811;BME280;33575;52.600;7.318;2023-05-19T10:46:03;102429.54;;;20.46;55.54
47811;BME280;33575;52.600;7.318;2023-05-19T10:48:33;102423.74;;;20.60;54.17
47811;BME280;33575;52.600;7.318;2023-05-19T10:51:04;102417.70;;;20.80;52.78
47811;BME280;33575;52.600;7.318;2023-05-19T10:53:33;102414.22;;;20.81;52.41
47811;BME280;33575;52.600;7.318;2023-05-19T10:56:04;102418.22;;;20.67;52.89
47811;BME280;33575;52.600;7.318;2023-05-19T10:58:38;102421.40;;;20.39;49.17
47811;BME280;33575;52.600;7.318;2023-05-19T11:01:07;102416.32;;;20.35;51.40
47811;BME280;33575;52.600;7.318;2023-05-19T11:08:35;102409.52;;;20.53;50.92
47811;BME280;33575;52.600;7.318;2023-05-19T11:11:11;102405.57;;;20.62;52.87
47811;BME280;33575;52.600;7.318;2023-05-19T11:13:40;102401.92;;;20.72;51.91
47811;BME280;33575;52.600;7.318;2023-05-19T11:16:06;102406.74;;;20.79;52.56
47811;BME280;33575;52.600;7.318;2023-05-19T11:18:36;102405.32;;;20.90;52.78
47811;BME280;33575;52.600;7.318;2023-05-19T11:21:06;102404.87;;;20.63;47.29
47811;BME280;33575;52.600;7.318;2023-05-19T11:23:37;102406.96;;;20.80;51.36
47811;BME280;33575;52.600;7.318;2023-05-19T11:26:07;102409.66;;;20.98;51.34
47811;BME280;33575;52.600;7.318;2023-05-19T11:28:37;102412.27;;;21.11;50.24
47811;BME280;33575;52.600;7.318;2023-05-19T11:31:07;102408.11;;;21.12;47.74
47811;BME280;33575;52.600;7.318;2023-05-19T11:33:38;102404.26;;;21.10;48.83
47811;BME280;33575;52.600;7.318;2023-05-19T11:36:09;102400.90;;;21.08;49.39
47811;BME280;33575;52.600;7.318;2023-05-19T11:38:39;102397.61;;;21.05;48.61
47811;BME280;33575;52.600;7.318;2023-05-19T11:41:09;102392.74;;;21.04;48.22
47811;BME280;33575;52.600;7.318;2023-05-19T11:43:40;102394.89;;;20.97;47.93
47811;BME280;33575;52.600;7.318;2023-05-19T11:46:09;102389.53;;;20.91;49.26
47811;BME280;33575;52.600;7.318;2023-05-19T11:48:39;102386.17;;;20.93;49.21
47811;BME280;33575;52.600;7.318;2023-05-19T11:51:10;102381.57;;;20.80;48.17
47811;BME280;33575;52.600;7.318;2023-05-19T11:53:40;102384.42;;;20.60;48.97
47811;BME280;33575;52.600;7.318;2023-05-19T11:56:10;102378.93;;;20.59;49.79
47811;BME280;33575;52.600;7.318;2023-05-19T11:58:40;102378.34;;;20.69;48.65
47811;BME280;33575;52.600;7.318;2023-05-19T12:01:11;102379.77;;;19.82;47.35
47811;BME280;33575;52.600;7.318;2023-05-19T12:03:41;102365.99;;;20.08;48.38
47811;BME280;33575;52.600;7.318;2023-05-19T12:06:11;102366.81;;;20.26;52.78
47811;BME280;33575;52.600;7.318;2023-05-19T12:08:41;102369.24;;;20.48;51.93
47811;BME280;33575;52.600;7.318;2023-05-19T12:11:12;102371.08;;;20.63;53.65
47811;BME280;33575;52.600;7.318;2023-05-19T12:13:43;102365.26;;;20.69;50.37
47811;BME280;33575;52.600;7.318;2023-05-19T12:16:12;102367.73;;;20.68;52.15
47811;BME280;33575;52.600;7.318;2023-05-19T12:18:43;102371.62;;;20.76;52.92
47811;BME280;33575;52.600;7.318;2023-05-19T12:21:13;102371.24;;;20.74;52.10
47811;BME280;33575;52.600;7.318;2023-05-19T12:23:43;102374.40;;;20.79;51.18
47811;BME280;33575;52.600;7.318;2023-05-19T12:26:13;102374.15;;;20.58;46.97
47811;BME280;33575;52.600;7.318;2023-05-19T12:28:44;102373.37;;;20.55;50.60
47811;BME280;33575;52.600;7.318;2023-05-19T12:31:14;102372.50;;;20.59;49.84
47811;BME280;33575;52.600;7.318;2023-05-19T12:33:44;102369.58;;;20.59;50.17
47811;BME280;33575;52.600;7.318;2023-05-19T12:36:15;102361.79;;;20.70;50.27
47811;BME280;33575;52.600;7.318;2023-05-19T12:38:45;102359.21;;;20.82;50.41
47811;BME280;33575;52.600;7.318;2023-05-19T12:41:16;102362.44;;;20.69;46.41
47811;BME280;33575;52.600;7.318;2023-05-19T12:43:45;102355.36;;;20.62;47.92
47811;BME280;33575;52.600;7.318;2023-05-19T12:46:17;102357.10;;;20.68;49.05
47811;BME280;33575;52.600;7.318;2023-05-19T12:48:46;102361.75;;;20.67;47.59
47811;BME280;33575;52.600;7.318;2023-05-19T12:51:16;102356.21;;;20.63;46.94
47811;BME280;33575;52.600;7.318;2023-05-19T12:53:49;102354.70;;;20.82;47.79
47811;BME280;33575;52.600;7.318;2023-05-19T12:56:17;102353.33;;;20.84;46.99
47811;BME280;33575;52.600;7.318;2023-05-19T12:58:52;102349.90;;;20.93;46.86
47811;BME280;33575;52.600;7.318;2023-05-19T13:01:18;102348.66;;;21.11;47.62
47811;BME280;33575;52.600;7.318;2023-05-19T13:03:48;102349.71;;;21.31;48.27
47811;BME280;33575;52.600;7.318;2023-05-19T13:06:18;102349.33;;;21.40;47.83
47811;BME280;33575;52.600;7.318;2023-05-19T13:08:48;102343.70;;;21.52;48.46
47811;BME280;33575;52.600;7.318;2023-05-19T13:11:19;102344.08;;;21.64;49.34
47811;BME280;33575;52.600;7.318;2023-05-19T13:13:49;102334.91;;;21.76;48.34
47811;BME280;33575;52.600;7.318;2023-05-19T13:16:19;102340.41;;;21.79;47.61